Hovedside
METAR-TAF:

METAR-TAF

Lufthavner :

Mo i Rana lufthavn. Røssvoll

Mo i Rana, Norge

breddegrad: 66-22N, lengdegrad: 014-18E, høyde over havet: 7 m

Gjeldene værobservasjon

Denne rapporten ble laget for 22 minutter siden, klokken 15:20 UTC
Vind 5 kt fra Nord-nordvest
Temperatur 6°C
Luftfuktighet 75%
Trykk 1034 hPa
Sikt 10 km eller mer
Brutte skyer i en høyde av 3000 ft
lett regn

METAR: ENRA 181520Z 34005KT 9999 -RA BKN030 06/02 Q1034

Tid: 17:42 (15:42 UTC)

Varsel

Denne rapporten ble laget for 1 time og 42 minutter siden, klokken 14:00 UTC
Varsel gyldig fra 18. klokken 15 UTC til 18. klokken 20 UTC
Vind 5 kt fra Vest-sørvest
Sikt 10 km eller mer
Få skyer i en høyde av 2500 ft
Brutte skyer i en høyde av 4000 ft

TAF: ENRA 181400Z 1815/1820 25005KT 9999 FEW025 BKN040

Værobservasjoner og værvarsel for over 4000 flyplasser (METAR- og TAF-rapporter).

Tilgjengelige stasjoner er representert av de røde og gule prikkene på kartet.

Hold musepekeren over prikken for å se navnet på stasjonen.

Klikk så for å se værobservasjoner og -varsler.

For å forandre kartet kan du klikke på den grønne knappen med svart kryss for å zoome inn, på den grønne knappen med strek for å zoome ut, eller på de grønne pilene for å se tilstøtende kart.


METAR-TAF: